createdAt,value
2019-02-24T00:00:43.143Z,7.90
2019-02-24T00:05:38.827Z,7.57
2019-02-24T00:15:30.538Z,7.13
2019-02-24T00:20:26.249Z,6.53
2019-02-24T00:25:22.961Z,7.07
2019-02-24T00:30:18.668Z,8.03
2019-02-24T00:40:10.185Z,6.53
2019-02-24T00:45:06.581Z,6.83
2019-02-24T00:50:03.093Z,7.63
2019-02-24T00:54:58.775Z,6.70
2019-02-24T00:59:54.635Z,7.20
2019-02-24T01:04:50.326Z,5.93
2019-02-24T01:09:46.224Z,6.07
2019-02-24T01:14:41.925Z,6.67
2019-02-24T01:19:37.931Z,7.93
2019-02-24T01:24:33.619Z,8.47
2019-02-24T01:29:30.661Z,11.33
2019-02-24T01:34:26.607Z,7.93
2019-02-24T01:39:22.527Z,7.20
2019-02-24T01:44:18.528Z,10.70
2019-02-24T01:49:14.622Z,7.73
2019-02-24T01:54:10.307Z,7.30
2019-02-24T01:59:06.155Z,8.43
2019-02-24T02:04:01.853Z,7.03
2019-02-24T02:08:57.715Z,7.97
2019-02-24T02:13:53.399Z,8.83
2019-02-24T02:18:49.479Z,10.77
2019-02-24T02:23:45.145Z,8.20
2019-02-24T02:28:43.998Z,11.13
2019-02-24T02:33:40.182Z,7.63
2019-02-24T02:38:36.410Z,6.43
2019-02-24T02:43:32.082Z,13.23
2019-02-24T02:48:28.001Z,7.07
2019-02-24T02:53:23.690Z,7.27
2019-02-24T02:58:20.333Z,7.53
2019-02-24T03:03:16.009Z,6.57
2019-02-24T03:08:14.165Z,6.07
2019-02-24T03:13:09.914Z,9.37
2019-02-24T03:18:06.382Z,7.00
2019-02-24T03:23:02.076Z,9.07
2019-02-24T03:27:58.036Z,8.30
2019-02-24T03:32:53.973Z,7.10
2019-02-24T03:37:51.343Z,7.63
2019-02-24T03:42:47.021Z,6.53
2019-02-24T03:47:43.055Z,7.03
2019-02-24T03:52:38.989Z,6.97
2019-02-24T03:57:34.886Z,5.90
2019-02-24T04:02:30.655Z,7.23
2019-02-24T04:07:26.531Z,7.20
2019-02-24T04:12:22.210Z,6.90
2019-02-24T04:17:18.103Z,8.37
2019-02-24T04:22:13.769Z,6.27
2019-02-24T04:27:11.682Z,6.97
2019-02-24T04:32:07.246Z,7.50
2019-02-24T04:37:03.144Z,7.27
2019-02-24T04:41:59.670Z,7.10
2019-02-24T04:46:55.518Z,8.07
2019-02-24T04:51:51.448Z,8.47
2019-02-24T04:56:47.327Z,8.47
2019-02-24T05:01:42.999Z,8.40
2019-02-24T05:06:38.944Z,6.40
2019-02-24T05:11:34.873Z,6.33
2019-02-24T05:16:30.879Z,7.37
2019-02-24T05:21:27.479Z,8.80
2019-02-24T05:26:23.635Z,9.13
2019-02-24T05:31:19.569Z,6.50
2019-02-24T05:36:15.450Z,6.30
2019-02-24T05:41:11.126Z,6.00
2019-02-24T05:46:07.913Z,6.90
2019-02-24T05:51:03.592Z,7.33
2019-02-24T05:55:59.894Z,8.93
2019-02-24T06:00:55.579Z,7.80
2019-02-24T06:05:51.687Z,6.53
2019-02-24T06:10:47.367Z,7.80
2019-02-24T06:15:43.468Z,6.53
2019-02-24T06:20:39.127Z,6.13
2019-02-24T06:25:35.321Z,7.57
2019-02-24T06:30:37.659Z,6.53
2019-02-24T06:35:33.448Z,6.40
2019-02-24T06:45:25.080Z,7.43
2019-02-24T06:50:20.822Z,7.07
2019-02-24T06:55:17.099Z,6.67
2019-02-24T07:00:14.402Z,7.27
2019-02-24T07:05:10.301Z,8.47
2019-02-24T07:10:06.361Z,7.67
2019-02-24T07:15:03.255Z,9.17
2019-02-24T07:19:59.031Z,9.40
2019-02-24T07:24:55.441Z,7.53
2019-02-24T07:29:52.128Z,9.57
2019-02-24T07:34:48.162Z,9.03
2019-02-24T07:39:43.912Z,14.50
2019-02-24T07:44:39.927Z,16.90
2019-02-24T07:49:35.599Z,7.57
2019-02-24T07:54:31.605Z,14.47
2019-02-24T07:59:27.274Z,14.87
2019-02-24T08:04:23.129Z,13.23
2019-02-24T08:09:18.985Z,13.80
2019-02-24T08:14:14.761Z,10.00
2019-02-24T08:19:10.634Z,13.20
2019-02-24T08:24:06.320Z,9.70
2019-02-24T08:29:02.189Z,9.00
2019-02-24T08:33:58.605Z,9.20
2019-02-24T08:38:54.500Z,7.93
2019-02-24T08:43:50.200Z,7.80
2019-02-24T08:48:46.329Z,9.58
2019-02-24T08:53:42.318Z,6.12
2019-02-24T08:58:38.000Z,7.90
2019-02-24T09:03:34.007Z,7.50
2019-02-24T09:08:29.795Z,8.17
2019-02-24T09:13:25.762Z,6.40
2019-02-24T09:18:21.446Z,5.90
2019-02-24T09:23:17.343Z,5.80
2019-02-24T09:28:13.136Z,6.07
2019-02-24T09:33:09.049Z,7.50
2019-02-24T09:38:05.337Z,4.87
2019-02-24T09:43:01.260Z,5.67
2019-02-24T09:47:57.315Z,6.63
2019-02-24T09:52:53.296Z,6.70
2019-02-24T09:57:49.068Z,6.13
2019-02-24T10:02:45.160Z,7.90
2019-02-24T10:07:40.829Z,5.87
2019-02-24T10:12:36.960Z,4.77
2019-02-24T10:17:32.639Z,5.20
2019-02-24T10:22:28.887Z,5.43
2019-02-24T10:27:24.593Z,5.70
2019-02-24T10:32:20.660Z,5.40
2019-02-24T10:37:16.355Z,7.53
2019-02-24T10:42:12.963Z,5.40
2019-02-24T10:47:08.655Z,5.60
2019-02-24T10:52:04.525Z,4.65
2019-02-24T10:57:00.605Z,5.97
2019-02-24T11:01:56.296Z,7.85
2019-02-24T11:06:52.168Z,6.77
2019-02-24T11:11:47.859Z,7.30
2019-02-24T11:16:43.625Z,8.47
2019-02-24T11:21:39.300Z,6.30
2019-02-24T11:26:35.170Z,5.83
2019-02-24T11:31:38.166Z,6.47
2019-02-24T11:36:28.732Z,8.00
2019-02-24T11:41:24.429Z,6.63
2019-02-24T11:46:20.622Z,6.93
2019-02-24T11:51:16.319Z,8.03
2019-02-24T11:56:12.155Z,7.37
2019-02-24T12:01:07.905Z,10.58
2019-02-24T12:06:03.870Z,8.90
2019-02-24T12:10:59.863Z,8.25
2019-02-24T12:15:55.965Z,8.63
2019-02-24T12:20:51.651Z,8.88
2019-02-24T12:25:47.519Z,8.25
2019-02-24T12:30:43.345Z,8.10
2019-02-24T12:35:39.214Z,7.47
2019-02-24T12:40:35.151Z,6.37
2019-02-24T12:45:31.360Z,6.35
2019-02-24T12:50:28.805Z,7.10
2019-02-24T12:55:24.709Z,5.75
2019-02-24T13:00:21.377Z,6.95
2019-02-24T13:05:17.272Z,6.78
2019-02-24T13:10:14.295Z,6.80
2019-02-24T13:15:10.348Z,5.97
2019-02-24T13:20:07.413Z,6.45
2019-02-24T13:25:03.883Z,6.55
2019-02-24T13:29:59.571Z,9.48
2019-02-24T13:34:55.849Z,7.00
2019-02-24T13:39:51.779Z,8.68
2019-02-24T13:44:47.927Z,7.40
2019-02-24T13:49:43.705Z,7.25
2019-02-24T13:54:40.241Z,6.47
2019-02-24T13:59:36.175Z,8.83
2019-02-24T14:04:31.932Z,6.65
2019-02-24T14:09:27.619Z,6.40
2019-02-24T14:14:23.764Z,6.97
2019-02-24T14:19:19.724Z,7.83
2019-02-24T14:24:15.604Z,6.72
2019-02-24T14:29:11.296Z,6.05
2019-02-24T14:34:07.051Z,6.15
2019-02-24T14:39:03.788Z,3.98
2019-02-24T14:43:59.976Z,5.70
2019-02-24T14:48:55.748Z,5.45
2019-02-24T14:53:51.636Z,3.87
2019-02-24T14:58:47.543Z,4.62
2019-02-24T15:03:43.520Z,5.07
2019-02-24T15:08:39.220Z,5.47
2019-02-24T15:13:34.993Z,4.17
2019-02-24T15:18:30.757Z,4.47
2019-02-24T15:23:26.858Z,3.70
2019-02-24T15:28:22.541Z,5.43
2019-02-24T15:33:18.309Z,3.70
2019-02-24T15:38:14.393Z,5.43
2019-02-24T15:43:10.356Z,4.37
2019-02-24T15:48:06.045Z,4.40
2019-02-24T15:53:02.254Z,3.90
2019-02-24T15:57:57.925Z,3.63
2019-02-24T16:03:00.953Z,4.43
2019-02-24T16:07:52.144Z,4.20
2019-02-24T16:12:48.156Z,5.83
2019-02-24T16:17:44.823Z,5.33
2019-02-24T16:22:40.701Z,4.70
2019-02-24T16:27:36.376Z,4.63
2019-02-24T16:32:32.623Z,5.33
2019-02-24T16:37:28.561Z,4.73
2019-02-24T16:42:24.509Z,6.27
2019-02-24T16:47:20.482Z,4.83
2019-02-24T16:52:16.456Z,5.63
2019-02-24T16:57:12.144Z,3.27
2019-02-24T17:02:08.097Z,11.73
2019-02-24T17:07:03.926Z,4.60
2019-02-24T17:11:59.863Z,5.93
2019-02-24T17:17:01.561Z,3.20
2019-02-24T17:21:53.570Z,6.40
2019-02-24T17:26:49.530Z,4.70
2019-02-24T17:31:45.264Z,4.70
2019-02-24T17:36:41.051Z,3.53
2019-02-24T17:41:36.862Z,3.77
2019-02-24T17:46:32.881Z,3.73
2019-02-24T17:51:29.032Z,5.17
2019-02-24T17:56:25.015Z,3.43
2019-02-24T18:01:21.121Z,3.17
2019-02-24T18:06:16.795Z,4.47
2019-02-24T18:11:13.014Z,4.13
2019-02-24T18:16:08.699Z,4.07
2019-02-24T18:21:06.530Z,5.77
2019-02-24T18:26:02.433Z,3.17
2019-02-24T18:30:58.530Z,5.73
2019-02-24T18:35:54.457Z,5.40
2019-02-24T18:40:50.421Z,3.70
2019-02-24T18:45:46.090Z,4.23
2019-02-24T18:50:42.594Z,4.93
2019-02-24T18:55:38.399Z,7.20
2019-02-24T19:00:34.355Z,5.73
2019-02-24T19:05:30.029Z,4.17
2019-02-24T19:10:25.945Z,6.70
2019-02-24T19:15:23.541Z,5.23
2019-02-24T19:20:20.351Z,4.60
2019-02-24T19:25:16.257Z,4.57
2019-02-24T19:30:15.702Z,4.63
2019-02-24T19:35:12.181Z,3.90
2019-02-24T19:40:09.431Z,3.70
2019-02-24T19:45:06.964Z,6.03
2019-02-24T19:50:04.153Z,6.83
2019-02-24T19:55:00.261Z,6.00
2019-02-24T19:59:56.289Z,6.17
2019-02-24T20:04:51.972Z,7.77
2019-02-24T20:09:47.899Z,7.60
2019-02-24T20:14:43.606Z,6.07
2019-02-24T20:19:39.593Z,6.13
2019-02-24T20:24:35.331Z,5.40
2019-02-24T20:29:31.865Z,7.37
2019-02-24T20:34:27.535Z,6.67
2019-02-24T20:39:23.523Z,4.70
2019-02-24T20:44:19.494Z,4.73
2019-02-24T20:49:15.527Z,4.33
2019-02-24T20:54:11.367Z,4.50
2019-02-24T20:59:07.249Z,4.47
2019-02-24T21:04:02.962Z,3.60
2019-02-24T21:08:58.947Z,3.90
2019-02-24T21:13:54.630Z,4.83
2019-02-24T21:18:50.379Z,4.73
2019-02-24T21:23:46.076Z,4.83
2019-02-24T21:28:41.956Z,4.17
2019-02-24T21:33:37.675Z,5.07
2019-02-24T21:38:33.751Z,4.67
2019-02-24T21:43:29.618Z,5.60
2019-02-24T21:48:25.497Z,4.63
2019-02-24T21:53:21.983Z,5.27
2019-02-24T21:58:17.878Z,5.60
2019-02-24T22:03:13.807Z,5.70
2019-02-24T22:08:09.949Z,6.90
2019-02-24T22:13:05.626Z,13.40
2019-02-24T22:18:01.513Z,7.63
2019-02-24T22:22:57.187Z,6.60
2019-02-24T22:27:53.322Z,6.13
2019-02-24T22:32:49.150Z,4.70
2019-02-24T22:37:45.207Z,7.90
2019-02-24T22:42:42.166Z,10.33
2019-02-24T22:47:38.034Z,10.27
2019-02-24T22:52:33.807Z,12.03
2019-02-24T22:57:29.718Z,5.57
2019-02-24T23:02:25.493Z,7.47
2019-02-24T23:07:21.905Z,6.23
2019-02-24T23:12:17.841Z,9.17
2019-02-24T23:17:13.733Z,7.37
2019-02-24T23:22:09.693Z,5.87
2019-02-24T23:27:05.588Z,5.03
2019-02-24T23:32:01.521Z,5.87
2019-02-24T23:36:57.645Z,5.23
2019-02-24T23:41:53.342Z,8.40
2019-02-24T23:46:49.469Z,6.20
2019-02-24T23:51:45.503Z,6.87
2019-02-24T23:56:41.359Z,7.90
